Time;durP1;ratioP1;P1;durP2;ratioP2;P2;SDS_P1;SDS_P2;PMS_P1;PMS_P2;Temp;Humidity;BMP_temperature;BMP_pressure;BME280_temperature;BME280_humidity;BME280_pressure;Samples;Min_cycle;Max_cycle;Signal;HPM_P1;HPM_P2
2022/04/12 00:01:04;;;;;;;8.10;6.03;;;;;;;3.23;67.56;99476.66;4997242;28;20159;-86
2022/04/12 00:03:30;;;;;;;11.03;6.47;;;;;;;5.30;68.01;99845.94;4997151;28;20516;-86
2022/04/12 00:05:56;;;;;;;9.43;5.50;;;;;;;5.33;69.12;99847.78;4998350;28;20411;-87
2022/04/12 00:08:21;;;;;;;11.67;7.20;;;;;;;4.25;68.32;99655.22;5008060;28;20182;-86
2022/04/12 00:10:47;;;;;;;9.13;6.00;;;;;;;4.59;68.57;99727.91;5011258;28;20624;-85
2022/04/12 00:13:13;;;;;;;9.97;6.30;;;;;;;3.49;68.30;99551.97;4999346;28;20178;-86
2022/04/12 00:15:39;;;;;;;13.83;6.70;;;;;;;2.82;68.54;99439.50;4997163;28;20624;-86
2022/04/12 00:20:49;;;;;;;10.53;6.07;;;;;;;3.83;68.53;99618.78;4995940;28;20445;-86
2022/04/12 00:23:15;;;;;;;10.30;6.40;;;;;;;5.01;69.54;99845.50;4994517;28;20449;-87
2022/04/12 00:25:44;;;;;;;12.13;6.07;;;;;;;3.87;70.18;99652.44;4994438;28;20246;-87
2022/04/12 00:28:10;;;;;;;11.27;5.80;;;;;;;4.77;71.20;99831.19;4994226;28;20258;-85
2022/04/12 00:30:36;;;;;;;10.03;5.70;;;;;;;4.30;72.39;99776.69;4996076;28;20810;-86
2022/04/12 00:33:02;;;;;;;9.93;5.70;;;;;;;4.60;73.55;99841.63;5012889;28;20481;-87
2022/04/12 00:35:27;;;;;;;13.33;7.30;;;;;;;2.72;74.52;99524.53;4996136;28;20169;-87
2022/04/12 00:37:54;;;;;;;9.97;6.00;;;;;;;4.44;75.95;99836.22;5013742;28;20163;-86
2022/04/12 00:40:24;;;;;;;9.47;5.97;;;;;;;4.35;77.30;99861.47;4993476;28;20182;-86
2022/04/12 00:42:49;;;;;;;19.10;7.93;;;;;;;1.85;77.45;99435.31;4993882;28;20473;-86
2022/04/12 00:45:15;;;;;;;12.00;6.83;;;;;;;2.28;77.80;99482.84;4994200;28;20415;-85
2022/04/12 00:47:40;;;;;;;12.80;7.30;;;;;;;4.24;77.96;99853.91;4993705;28;20262;-86
2022/04/12 00:50:09;;;;;;;11.57;6.67;;;;;;;4.27;76.97;99841.63;4993949;28;20203;-86
2022/04/12 00:52:39;;;;;;;9.50;5.33;;;;;;;1.81;75.54;99411.75;4993840;28;20251;-87
2022/04/12 00:55:06;;;;;;;12.23;5.90;;;;;;;4.33;75.91;99839.56;4993710;28;20416;-86
2022/04/12 00:57:32;;;;;;;10.93;5.97;;;;;;;2.95;75.58;99587.16;5008297;28;20955;-86
2022/04/12 01:00:00;;;;;;;9.53;5.97;;;;;;;2.32;75.77;99488.16;4993069;28;20411;-86
2022/04/12 01:02:26;;;;;;;11.97;5.93;;;;;;;3.76;75.46;99760.94;4992993;28;20467;-87
2022/04/12 01:04:52;;;;;;;9.80;6.10;;;;;;;3.67;74.83;99713.56;4991726;28;20422;-86
2022/04/12 01:07:19;;;;;;;8.23;5.13;;;;;;;3.01;75.18;99608.38;4992738;28;20222;-86
2022/04/12 01:09:45;;;;;;;10.17;6.07;;;;;;;2.19;75.71;99464.63;4991681;28;20167;-86
2022/04/12 01:12:11;;;;;;;9.47;5.13;;;;;;;4.05;74.45;99764.88;5008290;28;20494;-86
2022/04/12 01:14:37;;;;;;;9.97;5.10;;;;;;;4.05;74.13;99772.38;4991793;28;20530;-86
2022/04/12 01:17:07;;;;;;;8.70;4.97;;;;;;;4.44;73.68;99827.09;4992955;28;20221;-87
2022/04/12 01:19:33;;;;;;;9.00;5.83;;;;;;;4.50;73.95;99824.16;4992790;28;20425;-86
2022/04/12 01:22:08;;;;;;;8.33;5.43;;;;;;;4.45;73.78;99821.28;5007956;28;20835;-87
2022/04/12 01:24:34;;;;;;;12.70;5.57;;;;;;;3.99;73.27;99751.00;5007863;28;20426;-86
2022/04/12 01:27:00;;;;;;;9.70;5.63;;;;;;;4.41;72.95;99818.47;4991038;28;20864;-86
2022/04/12 01:29:31;;;;;;;10.10;4.80;;;;;;;4.40;73.16;99824.22;5007084;28;20199;-86
2022/04/12 01:31:56;;;;;;;8.93;4.77;;;;;;;3.89;73.18;99749.44;4992655;28;20407;-86
2022/04/12 01:34:21;;;;;;;7.97;4.70;;;;;;;3.36;73.00;99651.94;4992096;28;20441;-86
2022/04/12 01:36:47;;;;;;;8.13;4.57;;;;;;;3.25;72.13;99632.72;5003413;28;20210;-86
2022/04/12 01:39:12;;;;;;;8.37;4.13;;;;;;;3.02;72.48;99597.63;5010870;28;20518;-85
2022/04/12 01:41:37;;;;;;;8.43;4.57;;;;;;;2.58;72.84;99527.66;5018713;28;20623;-85
2022/04/12 01:44:03;;;;;;;8.83;5.30;;;;;;;3.02;73.08;99587.63;5022407;28;20198;-86
2022/04/12 01:46:28;;;;;;;9.47;5.17;;;;;;;2.65;73.57;99529.84;5022690;28;20197;-87
2022/04/12 01:48:54;;;;;;;9.27;5.60;;;;;;;2.86;73.76;99583.94;5011741;28;20619;-87
2022/04/12 01:51:19;;;;;;;10.47;5.97;;;;;;;2.88;72.54;99579.94;5010441;28;20170;-86
2022/04/12 01:53:45;;;;;;;8.93;5.53;;;;;;;2.33;72.59;99469.06;5011596;28;20261;-86
2022/04/12 01:56:10;;;;;;;11.27;5.40;;;;;;;3.97;72.66;99778.44;5011828;28;20167;-87
2022/04/12 01:58:36;;;;;;;10.33;5.37;;;;;;;3.92;72.45;99761.34;5010733;28;20186;-87
2022/04/12 02:01:02;;;;;;;8.63;4.80;;;;;;;2.52;72.43;99512.19;5010813;28;20174;-86
2022/04/12 02:03:28;;;;;;;10.73;6.33;;;;;;;2.22;72.45;99437.41;5011857;28;20189;-87
2022/04/12 02:05:54;;;;;;;11.03;5.50;;;;;;;1.81;71.91;99394.28;5011798;28;20911;-87
2022/04/12 02:08:20;;;;;;;9.07;5.90;;;;;;;4.38;72.08;99834.16;5011761;28;20159;-87
2022/04/12 02:10:46;;;;;;;9.20;5.27;;;;;;;2.09;71.53;99427.22;5010895;28;20907;-87
2022/04/12 02:13:11;;;;;;;9.37;5.77;;;;;;;3.08;71.15;99623.09;5010646;28;20163;-87
2022/04/12 02:15:37;;;;;;;7.63;4.93;;;;;;;4.09;71.42;99791.88;5010349;28;20170;-86
2022/04/12 02:18:02;;;;;;;9.47;5.90;;;;;;;3.39;71.73;99663.03;5012028;28;20171;-87
2022/04/12 02:20:28;;;;;;;8.20;4.60;;;;;;;4.19;72.40;99823.50;5011556;28;20189;-87
2022/04/12 02:22:53;;;;;;;8.73;4.90;;;;;;;2.78;72.47;99555.00;5011805;28;20245;-87
2022/04/12 02:25:19;;;;;;;10.47;4.67;;;;;;;1.56;71.97;99395.63;5011598;28;20631;-86
2022/04/12 02:27:44;;;;;;;9.57;5.73;;;;;;;4.22;72.52;99832.88;5011835;28;20580;-87
2022/04/12 02:30:10;;;;;;;9.70;5.37;;;;;;;4.18;72.83;99825.13;5017531;28;20210;-87
2022/04/12 02:32:36;;;;;;;10.60;5.97;;;;;;;4.22;72.25;99823.75;5030550;28;20175;-86
2022/04/12 02:35:01;;;;;;;10.40;4.53;;;;;;;4.16;72.98;99821.66;5033527;28;20406;-86
2022/04/12 02:37:27;;;;;;;13.07;6.17;;;;;;;3.35;73.40;99673.56;5026486;28;20695;-87
2022/04/12 02:39:53;;;;;;;8.97;4.13;;;;;;;3.72;73.17;99747.31;5013787;28;20163;-86
2022/04/12 02:42:18;;;;;;;9.97;5.63;;;;;;;3.29;75.02;99695.66;5013574;28;20218;-87
2022/04/12 02:44:44;;;;;;;11.80;6.27;;;;;;;3.09;76.41;99699.84;5016220;28;20507;-87
2022/04/12 02:47:09;;;;;;;9.80;5.80;;;;;;;2.33;77.22;99568.97;5016008;28;20226;-87
2022/04/12 02:49:35;;;;;;;11.60;6.80;;;;;;;2.68;78.38;99657.53;5014794;28;20193;-87
2022/04/12 02:52:00;;;;;;;11.17;6.53;;;;;;;2.96;78.48;99703.94;5014549;28;20696;-87
2022/04/12 02:54:26;;;;;;;10.90;6.60;;;;;;;2.00;79.14;99559.72;5016026;28;20182;-86
2022/04/12 02:56:51;;;;;;;14.03;6.90;;;;;;;2.85;79.26;99701.34;5016000;28;20166;-87
2022/04/12 02:59:17;;;;;;;12.67;7.00;;;;;;;1.89;79.71;99535.53;5016292;28;20170;-87
2022/04/12 03:01:42;;;;;;;14.03;7.70;;;;;;;2.93;79.38;99703.69;5015254;28;20169;-86
2022/04/12 03:04:08;;;;;;;15.33;8.03;;;;;;;2.40;79.71;99631.13;5014081;28;20671;-87
2022/04/12 03:06:33;;;;;;;12.17;7.73;;;;;;;3.93;78.11;99844.06;5015705;28;20665;-87
2022/04/12 03:08:59;;;;;;;16.60;8.37;;;;;;;3.53;77.89;99789.22;5015330;28;20171;-86
2022/04/12 03:11:24;;;;;;;13.47;7.70;;;;;;;2.01;77.40;99513.13;5015334;28;20249;-87
2022/04/12 03:13:50;;;;;;;16.40;8.57;;;;;;;1.76;77.72;99466.28;5014300;28;20269;-87
2022/04/12 03:16:15;;;;;;;16.03;7.90;;;;;;;0.96;77.31;99352.63;5015516;28;20178;-86
2022/04/12 03:18:40;;;;;;;16.97;8.83;;;;;;;2.86;78.07;99668.94;5015908;28;20241;-86
2022/04/12 03:21:06;;;;;;;19.63;9.60;;;;;;;3.24;78.42;99729.41;5015470;28;20668;-86
2022/04/12 03:23:31;;;;;;;13.93;8.63;;;;;;;3.83;79.08;99866.69;5016108;28;20190;-86
2022/04/12 03:25:57;;;;;;;18.30;9.47;;;;;;;2.88;77.95;99674.09;5015433;28;20182;-85
2022/04/12 03:28:22;;;;;;;15.87;8.30;;;;;;;0.48;76.94;99267.41;5013852;28;20167;-86
2022/04/12 03:30:47;;;;;;;15.20;7.90;;;;;;;2.46;78.36;99651.59;5013414;28;20167;-87
2022/04/12 03:33:13;;;;;;;16.30;7.60;;;;;;;2.05;78.09;99560.06;5014508;28;20642;-87
2022/04/12 03:35:38;;;;;;;14.03;7.70;;;;;;;3.74;78.16;99880.97;5014793;28;20167;-86
2022/04/12 03:38:04;;;;;;;22.57;8.53;;;;;;;1.29;78.11;99434.25;5017045;28;20540;-87
2022/04/12 03:40:32;;;;;;;14.70;8.50;;;;;;;2.09;78.19;99582.00;5017060;28;20166;-85
2022/04/12 03:43:03;;;;;;;15.17;8.23;;;;;;;3.46;77.34;99809.53;5013913;28;20190;-85
2022/04/12 03:45:29;;;;;;;17.40;8.00;;;;;;;3.80;77.56;99853.03;5014349;28;20405;-86
2022/04/12 03:47:55;;;;;;;13.90;7.77;;;;;;;1.08;76.68;99382.66;5014137;28;20469;-87
2022/04/12 03:50:21;;;;;;;14.90;8.17;;;;;;;1.20;76.37;99423.53;5013035;28;20487;-86
2022/04/12 03:52:47;;;;;;;14.40;7.90;;;;;;;1.57;76.80;99457.22;5014566;28;20429;-86
2022/04/12 03:55:12;;;;;;;15.23;8.27;;;;;;;1.95;75.97;99506.03;5017321;28;20913;-87
2022/04/12 03:57:38;;;;;;;16.80;8.57;;;;;;;4.07;75.28;99856.03;5024320;28;20166;-87
2022/04/12 04:00:08;;;;;;;16.80;7.03;;;;;;;4.01;74.62;99863.06;5031816;28;20299;-87
2022/04/12 04:02:35;;;;;;;14.47;6.43;;;;;;;1.64;72.34;99434.53;5027397;28;20257;-87
2022/04/12 04:05:01;;;;;;;15.80;7.40;;;;;;;2.32;71.61;99547.22;5018067;28;20417;-86
2022/04/12 04:07:27;;;;;;;12.90;6.77;;;;;;;2.25;70.36;99525.03;5014903;28;20913;-86
2022/04/12 04:09:53;;;;;;;13.37;6.93;;;;;;;2.20;70.15;99512.19;5014080;28;20177;-87
2022/04/12 04:12:19;;;;;;;11.83;6.07;;;;;;;2.15;70.56;99525.06;5013377;28;20398;-86
2022/04/12 04:14:44;;;;;;;13.17;6.13;;;;;;;1.87;69.80;99431.34;5015447;28;20242;-86
2022/04/12 04:17:09;;;;;;;11.10;6.27;;;;;;;4.36;68.85;99874.91;4996489;28;20199;-86
2022/04/12 04:19:35;;;;;;;13.33;6.53;;;;;;;2.28;68.17;99505.31;4994392;28;20182;-87
2022/04/12 04:22:01;;;;;;;17.70;9.20;;;;;;;1.49;68.11;99370.94;4989913;28;20246;-86
2022/04/12 04:24:26;;;;;;;17.10;9.17;;;;;;;3.47;68.24;99646.09;5013357;28;20265;-88
2022/04/12 04:26:55;;;;;;;15.27;7.70;;;;;;;4.26;67.60;99792.28;5013503;28;20245;-85
2022/04/12 04:29:22;;;;;;;12.60;7.57;;;;;;;3.24;68.14;99634.34;5021677;28;20173;-87
2022/04/12 04:31:48;;;;;;;12.47;7.27;;;;;;;2.79;67.51;99555.88;5020689;28;20913;-87
2022/04/12 04:34:13;;;;;;;19.47;10.83;;;;;;;4.51;68.29;99866.00;5012472;28;20440;-86
2022/04/12 04:36:39;;;;;;;10.87;6.27;;;;;;;3.90;68.84;99775.38;5013679;28;20167;-87
2022/04/12 04:39:04;;;;;;;13.20;6.60;;;;;;;3.39;68.72;99664.66;5012576;28;20704;-87
2022/04/12 04:41:30;;;;;;;17.23;6.93;;;;;;;3.57;68.01;99691.09;5011830;28;20226;-87
2022/04/12 04:43:55;;;;;;;13.87;7.33;;;;;;;2.39;68.34;99519.47;5013067;28;20261;-86
2022/04/12 04:46:20;;;;;;;16.33;8.10;;;;;;;2.96;68.54;99633.03;5014338;28;20171;-87
2022/04/12 04:48:46;;;;;;;14.13;7.50;;;;;;;3.71;68.83;99729.69;5012800;28;20698;-86
2022/04/12 04:51:11;;;;;;;16.83;7.43;;;;;;;4.80;67.60;99886.59;5014022;28;20179;-86
2022/04/12 04:53:37;;;;;;;18.57;7.07;;;;;;;2.98;67.60;99597.41;5013743;28;20167;-86
2022/04/12 04:56:04;;;;;;;16.03;8.10;;;;;;;3.67;66.92;99676.00;5017576;28;20178;-86
2022/04/12 04:58:30;;;;;;;20.80;11.20;;;;;;;4.94;66.28;99885.09;5025918;28;20158;-86
2022/04/12 05:00:55;;;;;;;25.07;13.13;;;;;;;3.75;66.01;99639.88;5016014;28;20418;-85
2022/04/12 05:03:20;;;;;;;28.37;13.47;;;;;;;3.11;64.92;99508.28;5001850;28;20265;-86
2022/04/12 05:05:46;;;;;;;31.13;15.73;;;;;;;3.45;64.64;99583.44;5003678;28;20185;-85
2022/04/12 05:08:11;;;;;;;24.83;12.07;;;;;;;4.91;64.24;99815.50;5003039;28;20172;-85
2022/04/12 05:10:37;;;;;;;19.03;10.40;;;;;;;2.77;62.82;99425.81;4995419;28;20171;-85
2022/04/12 05:13:03;;;;;;;25.10;13.67;;;;;;;4.85;63.49;99754.00;4991451;28;20194;-85
2022/04/12 05:15:29;;;;;;;28.83;14.23;;;;;;;4.98;63.08;99774.16;5010054;28;20178;-85
2022/04/12 05:17:55;;;;;;;52.83;27.27;;;;;;;2.77;63.70;99380.81;5011220;28;20459;-86
2022/04/12 05:20:24;;;;;;;36.93;21.73;;;;;;;2.82;63.71;99367.03;5011630;28;20441;-85
2022/04/12 05:22:49;;;;;;;28.07;14.60;;;;;;;3.66;64.35;99518.16;5002641;28;20540;-86
2022/04/12 05:25:15;;;;;;;24.63;12.50;;;;;;;5.03;63.88;99723.53;5011942;28;20420;-86
2022/04/12 05:27:43;;;;;;;27.63;14.07;;;;;;;4.26;63.21;99554.25;5011811;28;20932;-86
2022/04/12 05:30:10;;;;;;;29.73;16.67;;;;;;;6.06;62.96;99838.75;5027474;28;20183;-86
2022/04/12 05:32:36;;;;;;;28.60;16.00;;;;;;;6.69;61.75;99887.47;5012478;28;20512;-86
2022/04/12 05:35:03;;;;;;;22.90;12.70;;;;;;;5.82;60.73;99746.63;5011914;28;20898;-86
2022/04/12 05:37:31;;;;;;;25.47;12.70;;;;;;;6.70;60.91;99893.38;5018847;28;20532;-85
2022/04/12 05:39:57;;;;;;;23.97;14.07;;;;;;;6.27;59.98;99784.88;5013926;28;20495;-85
2022/04/12 05:42:23;;;;;;;21.63;10.60;;;;;;;5.48;57.75;99622.94;5014288;28;20966;-86
2022/04/12 05:44:49;;;;;;;39.13;19.10;;;;;;;6.06;58.35;99680.44;5010165;28;20187;-86
2022/04/12 05:47:14;;;;;;;26.37;12.20;;;;;;;6.49;57.88;99741.91;5010397;28;20930;-86
2022/04/12 05:49:40;;;;;;;12.23;7.50;;;;;;;6.10;56.50;99658.91;5010373;28;20173;-84
2022/04/12 05:52:05;;;;;;;11.27;5.70;;;;;;;4.32;54.63;99332.53;5011884;28;20229;-87
2022/04/12 05:54:31;;;;;;;17.70;9.87;;;;;;;7.40;55.99;99849.31;5009769;28;20557;-86
2022/04/12 05:56:57;;;;;;;16.73;7.37;;;;;;;6.38;54.36;99670.81;5009800;28;20725;-85
2022/04/12 05:59:23;;;;;;;12.30;7.53;;;;;;;6.88;54.63;99733.53;5011140;28;20206;-85
2022/04/12 06:01:49;;;;;;;13.97;6.90;;;;;;;5.58;54.07;99503.88;5010966;28;20217;-86
2022/04/12 06:04:14;;;;;;;12.63;7.60;;;;;;;6.22;54.55;99600.22;5010100;28;20277;-86
2022/04/12 06:06:41;;;;;;;14.70;8.37;;;;;;;6.52;54.17;99591.22;5011663;28;20831;-86
2022/04/12 06:09:07;;;;;;;20.33;10.77;;;;;;;7.17;53.61;99688.38;5010649;28;20654;-86
2022/04/12 06:11:32;;;;;;;23.00;11.37;;;;;;;8.11;53.37;99866.34;5011457;28;20444;-86
2022/04/12 06:13:58;;;;;;;28.33;16.60;;;;;;;6.34;53.04;99530.63;5011312;28;20316;-85
2022/04/12 06:16:24;;;;;;;14.60;8.97;;;;;;;7.67;51.07;99790.56;5013952;28;20155;-85
2022/04/12 06:18:50;;;;;;;7.97;3.90;;;;;;;6.19;51.13;99534.69;5014701;28;20211;-85
2022/04/12 06:21:15;;;;;;;11.00;5.30;;;;;;;8.21;52.00;99868.66;5013398;28;20457;-85
2022/04/12 06:23:41;;;;;;;9.77;5.50;;;;;;;7.19;51.51;99691.00;5007559;28;20252;-85
2022/04/12 06:26:07;;;;;;;9.93;6.10;;;;;;;5.11;50.60;99337.72;5033754;28;20183;-84
2022/04/12 06:28:32;;;;;;;19.83;9.27;;;;;;;7.29;51.78;99679.06;5018541;28;20240;-86
2022/04/12 06:30:59;;;;;;;19.57;10.90;;;;;;;8.51;51.58;99838.50;5013640;28;20197;-86
2022/04/12 06:33:26;;;;;;;7.20;4.13;;;;;;;8.10;49.99;99748.63;5013318;28;20261;-87
2022/04/12 06:35:51;;;;;;;6.03;3.70;;;;;;;8.84;48.33;99873.28;5012372;28;20174;-85
2022/04/12 06:38:18;;;;;;;8.50;5.13;;;;;;;8.57;49.20;99803.53;5012751;28;20725;-86
2022/04/12 06:40:44;;;;;;;10.83;6.43;;;;;;;7.28;49.35;99575.75;5012739;28;20182;-85
2022/04/12 06:43:11;;;;;;;16.60;8.27;;;;;;;6.85;49.31;99491.78;5011621;28;20201;-86
2022/04/12 06:45:37;;;;;;;12.57;6.93;;;;;;;7.18;49.47;99541.59;4997686;28;20210;-85
2022/04/12 06:48:03;;;;;;;9.07;4.70;;;;;;;9.37;49.34;99881.34;5004381;28;20226;-86
2022/04/12 06:50:28;;;;;;;12.27;7.77;;;;;;;9.57;49.19;99869.81;5014595;28;20539;-87
2022/04/12 06:52:55;;;;;;;11.83;6.87;;;;;;;8.78;50.06;99724.88;5029086;28;20182;-88
2022/04/12 06:55:21;;;;;;;14.63;8.00;;;;;;;6.87;48.79;99397.97;5014622;28;20261;-88
2022/04/12 06:57:46;;;;;;;12.60;7.00;;;;;;;7.85;48.27;99568.16;5014553;28;20638;-86
2022/04/12 07:00:13;;;;;;;13.50;6.40;;;;;;;8.82;47.84;99757.03;5015615;28;20179;-87
2022/04/12 07:02:38;;;;;;;11.60;6.93;;;;;;;7.69;48.44;99592.47;5033462;28;20206;-87
2022/04/12 07:05:05;;;;;;;24.97;10.97;;;;;;;7.51;48.36;99498.22;5028709;28;20637;-86
2022/04/12 07:07:31;;;;;;;15.37;8.10;;;;;;;7.81;46.94;99503.22;5014844;28;20166;-86
2022/04/12 07:09:57;;;;;;;13.00;6.90;;;;;;;10.08;47.94;99902.97;5014498;28;20705;-87
2022/04/12 07:12:24;;;;;;;18.87;8.83;;;;;;;9.13;47.41;99710.75;5013295;28;20186;-86
2022/04/12 07:14:50;;;;;;;22.17;11.40;;;;;;;9.95;46.19;99815.47;5017251;28;20258;-86
2022/04/12 07:17:15;;;;;;;21.10;11.27;;;;;;;10.73;45.94;99893.81;5031246;28;20183;-86
2022/04/12 07:19:40;;;;;;;7.43;4.10;;;;;;;9.73;44.04;99731.69;5006128;28;20180;-85
2022/04/12 07:22:07;;;;;;;7.20;4.37;;;;;;;9.59;44.59;99747.78;4995391;28;20188;-85
2022/04/12 07:24:33;;;;;;;9.43;5.77;;;;;;;10.18;44.38;99788.00;5001511;28;20238;-86
2022/04/12 07:26:58;;;;;;;5.10;2.77;;;;;;;9.90;41.70;99730.91;5013662;28;20631;-86
2022/04/12 07:29:23;;;;;;;6.93;3.80;;;;;;;10.66;42.07;99874.00;5014258;28;20166;-86
2022/04/12 07:31:49;;;;;;;5.47;3.50;;;;;;;9.69;40.13;99731.47;5014254;28;20253;-86
2022/04/12 07:34:14;;;;;;;7.07;3.40;;;;;;;9.24;41.01;99628.84;5013888;28;20159;-88
2022/04/12 07:36:43;;;;;;;7.80;4.50;;;;;;;9.48;41.37;99613.28;5013124;28;20257;-86
2022/04/12 07:39:09;;;;;;;11.10;6.20;;;;;;;9.98;41.41;99699.28;5012619;28;20193;-86
2022/04/12 07:41:37;;;;;;;9.27;6.33;;;;;;;10.00;40.67;99674.06;5012257;28;20194;-87
2022/04/12 07:44:03;;;;;;;4.27;3.00;;;;;;;11.20;40.28;99908.84;5028879;28;20640;-86
2022/04/12 07:46:28;;;;;;;6.90;4.60;;;;;;;9.74;41.05;99655.06;5012897;28;20266;-87
2022/04/12 07:48:54;;;;;;;5.13;3.17;;;;;;;10.72;40.08;99808.47;5012379;28;20237;-86
2022/04/12 07:51:19;;;;;;;6.60;3.67;;;;;;;9.64;40.26;99603.97;5009818;28;20606;-87
2022/04/12 07:53:45;;;;;;;7.23;4.30;;;;;;;11.12;39.64;99819.75;4993886;28;20191;-86
2022/04/12 07:56:10;;;;;;;8.40;4.30;;;;;;;11.84;39.54;99867.13;5013145;28;20556;-87
2022/04/12 07:58:36;;;;;;;12.13;5.27;;;;;;;11.09;38.55;99672.69;5017139;28;20186;-87
2022/04/12 08:01:01;;;;;;;8.10;4.00;;;;;;;12.26;37.80;99848.78;5017939;28;20163;-86
2022/04/12 08:03:27;;;;;;;5.67;3.33;;;;;;;11.81;38.75;99903.38;5015670;28;20206;-85
2022/04/12 08:05:52;;;;;;;6.23;3.83;;;;;;;9.71;37.91;99531.06;5015766;28;20167;-86
2022/04/12 08:08:18;;;;;;;5.13;3.37;;;;;;;11.13;38.30;99710.00;5015984;28;20551;-86
2022/04/12 08:10:44;;;;;;;16.13;8.43;;;;;;;12.34;37.04;99902.41;5018077;28;20166;-86
2022/04/12 08:13:09;;;;;;;14.80;8.47;;;;;;;11.60;38.22;99734.09;5013854;28;20194;-87
2022/04/12 08:15:36;;;;;;;13.50;9.73;;;;;;;11.56;36.59;99591.13;5013753;28;20201;-87
2022/04/12 08:18:03;;;;;;;7.17;3.47;;;;;;;12.16;36.37;99815.31;5012252;28;20182;-87
2022/04/12 08:20:28;;;;;;;7.73;3.37;;;;;;;9.85;37.28;99499.72;5012907;28;20167;-86
2022/04/12 08:22:54;;;;;;;6.17;3.97;;;;;;;12.22;37.44;99838.44;5002876;28;20253;-86
2022/04/12 08:25:19;;;;;;;6.23;4.20;;;;;;;12.09;37.64;99833.59;5013033;28;20560;-85
2022/04/12 08:27:45;;;;;;;8.73;5.13;;;;;;;11.76;37.50;99751.78;5013503;28;20171;-86
2022/04/12 08:30:12;;;;;;;11.77;5.67;;;;;;;11.22;37.88;99621.75;5013876;28;20640;-86
2022/04/12 08:32:37;;;;;;;23.43;10.40;;;;;;;12.66;38.29;99878.44;5013098;28;20238;-86
2022/04/12 08:35:04;;;;;;;13.07;7.37;;;;;;;13.33;37.96;99885.53;5012960;28;20228;-87
2022/04/12 08:37:30;;;;;;;6.57;3.80;;;;;;;12.55;36.87;99761.16;5013120;28;20538;-85
2022/04/12 08:39:55;;;;;;;5.40;3.30;;;;;;;13.17;36.78;99806.03;5010973;28;20265;-87
2022/04/12 08:42:21;;;;;;;6.53;3.70;;;;;;;12.86;36.76;99814.06;5012518;28;20171;-84
2022/04/12 08:44:48;;;;;;;7.83;4.97;;;;;;;13.45;36.67;99864.81;5012823;28;20991;-88
2022/04/12 08:47:15;;;;;;;9.77;5.23;;;;;;;12.41;36.82;99656.44;5011589;28;20303;-88
2022/04/12 08:49:42;;;;;;;13.57;8.43;;;;;;;13.72;35.79;99779.38;5012664;28;20242;-85
2022/04/12 08:52:11;;;;;;;8.20;5.43;;;;;;;14.45;35.31;99874.59;5012892;28;20576;-86
2022/04/12 08:54:38;;;;;;;14.00;7.63;;;;;;;14.66;36.06;99871.97;5016493;28;20159;-87
2022/04/12 08:57:04;;;;;;;9.57;4.77;;;;;;;14.75;35.76;99870.59;5027626;28;20151;-87
2022/04/12 08:59:30;;;;;;;10.23;5.33;;;;;;;14.06;36.03;99768.75;5026650;28;20666;-87
2022/04/12 09:01:57;;;;;;;6.07;3.80;;;;;;;10.99;36.50;99417.19;5019189;28;20162;-86
2022/04/12 09:04:22;;;;;;;10.27;6.23;;;;;;;12.88;37.59;99810.78;5016283;28;20183;-88
2022/04/12 09:06:53;;;;;;;6.07;3.97;;;;;;;12.29;37.35;99663.59;5031307;28;20232;-86
2022/04/12 09:09:24;;;;;;;6.37;4.10;;;;;;;13.05;36.58;99770.81;5011244;28;20174;-86
2022/04/12 09:12:04;;;;;;;6.00;3.67;;;;;;;13.70;36.20;99843.75;5012534;28;20613;-88
2022/04/12 09:14:43;;;;;;;5.70;3.77;;;;;;;13.65;37.00;99845.25;5011741;28;20166;-87
2022/04/12 09:17:18;;;;;;;14.37;6.87;;;;;;;12.83;35.69;99553.13;5012595;28;20163;-86
2022/04/12 09:19:51;;;;;;;6.20;3.90;;;;;;;14.63;35.62;99848.91;5011806;28;20186;-86
2022/04/12 09:22:17;;;;;;;6.77;4.23;;;;;;;14.48;35.51;99839.06;5013456;28;20265;-86
2022/04/12 09:25:10;;;;;;;5.87;3.67;;;;;;;14.01;34.72;99818.63;5003265;28;20372;-86
2022/04/12 09:27:36;;;;;;;5.20;3.93;;;;;;;13.63;35.92;99799.38;5012702;28;20698;-87
2022/04/12 09:30:08;;;;;;;6.87;4.03;;;;;;;12.79;35.48;99588.53;5010957;28;20229;-86
2022/04/12 09:32:45;;;;;;;8.40;4.83;;;;;;;13.63;35.28;99678.94;5011996;28;20183;-86
2022/04/12 09:35:11;;;;;;;8.33;4.77;;;;;;;14.36;34.81;99797.88;5012548;28;20158;-86
2022/04/12 09:37:42;;;;;;;6.70;4.90;;;;;;;14.01;35.57;99720.22;5012548;28;20289;-87
2022/04/12 09:40:09;;;;;;;8.53;5.10;;;;;;;15.05;35.44;99818.91;5017790;28;20193;-85
2022/04/12 09:42:53;;;;;;;12.33;7.03;;;;;;;15.25;35.10;99822.94;5032033;28;20234;-88
2022/04/12 09:45:19;;;;;;;17.23;10.20;;;;;;;15.66;34.56;99816.59;5013030;28;20155;-86
2022/04/12 09:47:47;;;;;;;15.53;8.97;;;;;;;15.16;34.37;99696.00;5013230;28;20223;-86
2022/04/12 09:50:13;;;;;;;9.13;5.00;;;;;;;15.00;33.15;99548.47;5012871;28;20628;-87
2022/04/12 09:52:39;;;;;;;5.37;3.10;;;;;;;14.98;33.56;99714.97;5010896;28;20173;-87
2022/04/12 09:55:09;;;;;;;5.43;3.70;;;;;;;13.70;35.56;99708.91;5012647;28;20194;-87
2022/04/12 09:57:38;;;;;;;7.47;4.40;;;;;;;14.66;35.70;99809.13;5013997;28;20214;-87
2022/04/12 10:00:04;;;;;;;7.77;4.40;;;;;;;12.59;34.37;99407.44;5012292;28;20179;-85
2022/04/12 10:02:31;;;;;;;9.17;3.60;;;;;;;13.56;33.65;99549.03;5013923;28;20190;-85
2022/04/12 10:04:56;;;;;;;8.83;3.37;;;;;;;14.85;34.28;99795.31;5012424;28;20186;-86
2022/04/12 10:07:24;;;;;;;5.60;3.53;;;;;;;14.84;33.77;99742.59;5012248;28;20619;-86
2022/04/12 10:09:51;;;;;;;5.23;3.33;;;;;;;14.40;34.21;99708.00;5011290;28;20186;-86
2022/04/12 10:12:18;;;;;;;5.87;3.70;;;;;;;12.77;33.90;99369.13;5011959;28;20197;-86
2022/04/12 10:14:46;;;;;;;7.63;4.77;;;;;;;15.29;32.94;99733.81;5012719;28;20249;-87
2022/04/12 10:17:13;;;;;;;6.57;4.50;;;;;;;15.67;32.47;99775.81;5011927;28;20631;-87
2022/04/12 10:19:40;;;;;;;6.37;3.40;;;;;;;14.54;32.25;99604.00;5011274;28;20170;-87
2022/04/12 10:22:06;;;;;;;5.33;3.40;;;;;;;14.56;32.54;99649.09;5010597;28;20651;-87
2022/04/12 10:24:33;;;;;;;6.67;3.33;;;;;;;14.51;32.28;99552.94;5002634;28;20242;-87
2022/04/12 10:26:58;;;;;;;5.33;3.50;;;;;;;14.70;31.54;99507.69;5011400;28;20155;-88
2022/04/12 10:29:24;;;;;;;4.67;3.30;;;;;;;14.08;31.88;99419.22;5010649;28;20182;-87
2022/04/12 10:32:00;;;;;;;5.87;3.60;;;;;;;15.88;31.90;99704.94;5011676;28;20162;-86
2022/04/12 10:34:26;;;;;;;7.00;3.87;;;;;;;14.79;32.30;99550.41;5010987;28;20189;-86
2022/04/12 10:37:03;;;;;;;6.40;3.83;;;;;;;16.11;32.45;99725.13;5011031;28;20159;-86
2022/04/12 10:39:33;;;;;;;8.77;4.67;;;;;;;16.16;32.45;99726.97;5011489;28;20701;-87
2022/04/12 10:42:11;;;;;;;7.63;4.37;;;;;;;16.26;31.96;99717.88;5011083;28;20194;-86
2022/04/12 10:44:44;;;;;;;8.63;4.67;;;;;;;16.53;31.69;99722.00;5011269;28;20187;-87
2022/04/12 10:47:24;;;;;;;4.77;3.10;;;;;;;15.81;31.79;99717.50;5011028;28;20226;-87
2022/04/12 10:50:14;;;;;;;5.37;3.30;;;;;;;15.27;31.21;99681.03;5011305;28;20182;-87
2022/04/12 10:52:42;;;;;;;8.57;4.77;;;;;;;15.60;31.38;99693.94;5011066;28;20263;-88
2022/04/12 10:55:11;;;;;;;5.40;3.30;;;;;;;15.77;31.30;99695.25;5010176;28;20174;-86
2022/04/12 10:57:37;;;;;;;8.20;3.33;;;;;;;15.78;30.91;99634.03;5011211;28;20178;-86
2022/04/12 11:00:10;;;;;;;8.47;3.80;;;;;;;16.28;31.31;99693.22;5011293;28;20158;-85
2022/04/12 11:02:38;;;;;;;9.53;5.97;;;;;;;14.65;31.85;99471.00;5012434;28;20201;-86
2022/04/12 11:05:05;;;;;;;5.37;3.10;;;;;;;15.58;31.63;99596.88;5014875;28;20612;-85
2022/04/12 11:07:36;;;;;;;7.07;2.90;;;;;;;15.33;31.79;99566.41;5013900;28;20170;-85
2022/04/12 11:10:05;;;;;;;5.10;3.00;;;;;;;15.94;31.10;99674.47;5026701;28;20155;-86
2022/04/12 11:12:40;;;;;;;8.50;5.07;;;;;;;16.18;31.06;99687.00;5015481;28;20603;-85
2022/04/12 11:15:23;;;;;;;4.83;2.80;;;;;;;14.41;30.19;99423.59;5014700;28;20166;-86
2022/04/12 11:17:48;;;;;;;4.53;2.60;;;;;;;13.60;31.43;99315.94;4999593;28;20187;-86
2022/04/12 11:20:23;;;;;;;6.97;4.30;;;;;;;15.62;31.17;99570.66;4995393;28;20375;-86
2022/04/12 11:22:56;;;;;;;15.07;6.00;;;;;;;15.63;30.83;99500.88;5005608;28;20259;-86
2022/04/12 11:25:22;;;;;;;7.57;4.00;;;;;;;15.82;30.96;99669.00;5009186;28;20545;-86
2022/04/12 11:27:58;;;;;;;5.43;3.17;;;;;;;15.27;31.19;99594.31;4996518;28;20167;-86
2022/04/12 11:30:28;;;;;;;6.00;3.20;;;;;;;16.07;30.34;99651.81;4994744;28;20170;-85
2022/04/12 11:32:55;;;;;;;7.77;3.50;;;;;;;15.88;31.19;99651.31;4994710;28;20163;-87
2022/04/12 11:35:22;;;;;;;9.07;4.50;;;;;;;14.34;31.05;99302.84;4994700;28;20234;-86